Time;durP1;ratioP1;P1;durP2;ratioP2;P2;SDS_P1;SDS_P2;PMS_P1;PMS_P2;Temp;Humidity;BMP_temperature;BMP_pressure;BME280_temperature;BME280_humidity;BME280_pressure;Samples;Min_cycle;Max_cycle;Signal;HPM_P1;HPM_P2
2022/12/09 00:00:15;;;;;;;51.08;22.82;;;;;;;3.51;100.00;98162.57;2249058;79;21025;-59
2022/12/09 00:03:18;;;;;;;51.23;23.90;;;;;;;3.51;100.00;98163.87;2220498;79;20997;-59
2022/12/09 00:06:20;;;;;;;54.50;24.92;;;;;;;3.50;100.00;98161.70;2249437;79;20996;-59
2022/12/09 00:09:21;;;;;;;50.23;23.70;;;;;;;3.55;100.00;98162.37;2249329;79;21092;-59
2022/12/09 00:12:23;;;;;;;54.05;24.77;;;;;;;3.44;100.00;98168.00;2249457;79;20965;-59
2022/12/09 00:15:24;;;;;;;53.47;24.67;;;;;;;3.40;100.00;98171.63;2249007;79;21051;-59
2022/12/09 00:18:26;;;;;;;55.70;24.18;;;;;;;3.42;100.00;98168.96;2249284;79;21618;-60
2022/12/09 00:21:27;;;;;;;54.93;24.57;;;;;;;3.44;100.00;98165.87;2249081;79;21064;-59
2022/12/09 00:24:29;;;;;;;57.97;26.33;;;;;;;3.47;100.00;98169.63;2249581;79;21563;-59
2022/12/09 00:27:30;;;;;;;49.33;24.23;;;;;;;3.54;100.00;98167.62;2248983;79;21123;-59
2022/12/09 00:30:32;;;;;;;57.75;26.30;;;;;;;3.53;100.00;98170.65;2249014;79;21045;-59
2022/12/09 00:33:33;;;;;;;56.15;25.88;;;;;;;3.50;100.00;98168.19;2249218;79;21008;-59
2022/12/09 00:36:34;;;;;;;54.58;25.52;;;;;;;3.57;100.00;98172.67;2249066;79;21037;-59
2022/12/09 00:39:36;;;;;;;55.08;26.48;;;;;;;3.64;100.00;98174.09;2249148;79;21287;-59
2022/12/09 00:42:38;;;;;;;51.60;24.35;;;;;;;3.71;100.00;98172.09;2248843;79;21046;-59
2022/12/09 00:45:39;;;;;;;53.05;25.02;;;;;;;3.71;100.00;98179.41;2249333;79;21031;-59
2022/12/09 00:48:40;;;;;;;51.90;24.72;;;;;;;3.58;100.00;98181.68;2249023;79;21017;-59
2022/12/09 00:51:42;;;;;;;57.87;26.77;;;;;;;3.49;100.00;98191.59;2249581;79;21034;-59
2022/12/09 00:54:43;;;;;;;57.10;27.00;;;;;;;3.45;100.00;98191.73;2250699;79;21143;-59
2022/12/09 00:57:45;;;;;;;57.25;24.85;;;;;;;3.40;100.00;98190.23;2256394;79;21508;-59
2022/12/09 01:00:46;;;;;;;58.52;25.68;;;;;;;3.40;100.00;98194.95;2256098;79;21024;-59
2022/12/09 01:03:48;;;;;;;58.65;25.15;;;;;;;3.35;100.00;98199.51;2256088;79;21531;-59
2022/12/09 01:06:49;;;;;;;57.03;24.92;;;;;;;3.36;100.00;98200.34;2256263;79;21020;-59
2022/12/09 01:09:51;;;;;;;56.17;25.73;;;;;;;3.31;100.00;98198.41;2256190;79;21004;-59
2022/12/09 01:12:52;;;;;;;52.53;25.48;;;;;;;3.27;100.00;98196.38;2256242;79;21033;-59
2022/12/09 01:15:54;;;;;;;58.63;26.97;;;;;;;3.28;100.00;98185.95;2256185;79;20973;-59
2022/12/09 01:18:56;;;;;;;55.78;27.02;;;;;;;3.28;100.00;98189.84;2256291;79;21547;-60
2022/12/09 01:21:58;;;;;;;55.35;26.70;;;;;;;3.31;100.00;98186.75;2256247;79;21088;-59
2022/12/09 01:24:59;;;;;;;54.70;26.62;;;;;;;3.32;100.00;98190.56;2256203;79;21032;-60
2022/12/09 01:28:00;;;;;;;58.35;25.10;;;;;;;3.37;100.00;98188.61;2256085;79;21004;-59
2022/12/09 01:31:02;;;;;;;52.03;24.95;;;;;;;3.35;100.00;98194.76;2256013;79;21035;-60
2022/12/09 01:34:03;;;;;;;54.53;25.55;;;;;;;3.27;100.00;98192.49;2256111;79;21016;-59
2022/12/09 01:37:05;;;;;;;54.05;25.30;;;;;;;3.22;100.00;98194.42;2256456;79;21076;-59
2022/12/09 01:40:06;;;;;;;52.50;25.57;;;;;;;3.21;100.00;98196.18;2256186;79;21045;-59
2022/12/09 01:43:07;;;;;;;54.98;26.10;;;;;;;3.28;100.00;98194.19;2256083;79;21034;-59
2022/12/09 01:46:09;;;;;;;58.45;26.60;;;;;;;3.41;100.00;98186.74;2256342;79;21009;-59
2022/12/09 01:49:10;;;;;;;64.72;26.25;;;;;;;3.40;100.00;98186.34;2256009;79;21079;-59
2022/12/09 01:52:12;;;;;;;58.40;26.62;;;;;;;3.50;100.00;98183.75;2256361;79;21536;-59
2022/12/09 01:55:13;;;;;;;58.67;25.93;;;;;;;3.68;100.00;98176.95;2253673;79;21036;-59
2022/12/09 01:58:15;;;;;;;56.05;26.42;;;;;;;3.68;100.00;98176.95;2248986;79;20993;-59
2022/12/09 02:01:16;;;;;;;57.83;26.53;;;;;;;3.61;100.00;98172.93;2249153;79;21093;-59
2022/12/09 02:04:18;;;;;;;61.23;27.45;;;;;;;3.53;100.00;98175.00;2248970;79;21036;-60
2022/12/09 02:07:19;;;;;;;58.60;26.40;;;;;;;3.58;100.00;98176.95;2249131;79;21037;-59
2022/12/09 02:10:21;;;;;;;58.02;27.07;;;;;;;3.53;100.00;98180.19;2248961;79;21076;-59
2022/12/09 02:13:22;;;;;;;53.75;26.33;;;;;;;3.50;100.00;98177.73;2249019;79;21814;-59
2022/12/09 02:16:23;;;;;;;55.55;25.08;;;;;;;3.45;100.00;98175.34;2248819;79;21008;-60
2022/12/09 02:19:25;;;;;;;59.20;26.05;;;;;;;3.37;100.00;98170.46;2248984;79;21021;-59
2022/12/09 02:22:26;;;;;;;59.15;25.68;;;;;;;3.37;100.00;98164.45;2249094;79;21036;-59
2022/12/09 02:25:28;;;;;;;61.60;26.20;;;;;;;3.31;100.00;98162.95;2249318;79;21076;-59
2022/12/09 02:28:29;;;;;;;56.53;25.70;;;;;;;3.34;100.00;98166.70;2249432;79;21028;-59
2022/12/09 02:31:31;;;;;;;58.83;27.65;;;;;;;3.43;100.00;98156.40;2249292;79;21048;-59
2022/12/09 02:34:32;;;;;;;56.73;26.55;;;;;;;3.37;100.00;98163.98;2249444;79;21484;-59
2022/12/09 02:37:34;;;;;;;64.27;27.98;;;;;;;3.35;100.00;98155.87;2249360;79;21070;-59
2022/12/09 02:40:35;;;;;;;55.25;26.12;;;;;;;3.37;100.00;98157.50;2249049;79;21053;-59
2022/12/09 02:43:37;;;;;;;55.83;26.20;;;;;;;3.33;100.00;98147.33;2249370;79;21096;-59
2022/12/09 02:46:38;;;;;;;60.60;27.45;;;;;;;3.29;100.00;98148.77;2249175;79;21076;-59
2022/12/09 02:49:39;;;;;;;55.40;26.60;;;;;;;3.33;100.00;98147.33;2249361;79;21020;-59
2022/12/09 02:52:41;;;;;;;57.38;27.17;;;;;;;3.35;100.00;98151.55;2249160;79;21044;-59
2022/12/09 02:55:42;;;;;;;58.63;27.05;;;;;;;3.33;100.00;98142.98;2252049;79;21557;-59
2022/12/09 02:58:44;;;;;;;59.48;28.15;;;;;;;3.42;100.00;98140.45;2256215;79;21052;-58
2022/12/09 03:01:45;;;;;;;57.98;26.93;;;;;;;3.39;100.00;98144.47;2256612;79;21496;-59
2022/12/09 03:04:47;;;;;;;56.77;27.17;;;;;;;3.33;100.00;98141.68;2256342;79;21059;-59
2022/12/09 03:07:48;;;;;;;58.23;27.10;;;;;;;3.25;100.00;98145.91;2256658;79;21049;-59
2022/12/09 03:10:50;;;;;;;59.30;26.97;;;;;;;3.24;100.00;98144.67;2256398;79;21096;-59
2022/12/09 03:13:51;;;;;;;57.40;26.05;;;;;;;3.23;100.00;98141.69;2256242;79;21021;-59
2022/12/09 03:16:53;;;;;;;61.65;27.30;;;;;;;3.18;100.00;98143.18;2256604;79;21091;-59
2022/12/09 03:19:54;;;;;;;56.65;26.70;;;;;;;3.18;100.00;98141.88;2256216;79;21032;-59
2022/12/09 03:22:56;;;;;;;56.20;26.37;;;;;;;3.17;100.00;98138.06;2256362;79;21576;-59
2022/12/09 03:25:57;;;;;;;57.48;27.37;;;;;;;3.23;100.00;98138.66;2256328;79;21208;-59
2022/12/09 03:28:59;;;;;;;55.75;27.62;;;;;;;3.24;100.00;98140.78;2256150;79;21032;-59
2022/12/09 03:32:00;;;;;;;54.20;25.50;;;;;;;3.32;100.00;98140.45;2256343;79;21033;-59
2022/12/09 03:35:02;;;;;;;56.25;27.02;;;;;;;3.30;100.00;98144.41;2256223;79;21041;-59
2022/12/09 03:38:03;;;;;;;57.70;27.35;;;;;;;3.39;100.00;98137.55;2256133;79;20992;-59
2022/12/09 03:41:05;;;;;;;61.83;28.38;;;;;;;3.34;100.00;98136.06;2256401;79;21064;-60
2022/12/09 03:44:06;;;;;;;59.58;28.42;;;;;;;3.30;100.00;98132.74;2256287;79;21095;-59
2022/12/09 03:47:08;;;;;;;71.45;32.33;;;;;;;3.35;100.00;98132.11;2256238;79;21016;-60
2022/12/09 03:50:10;;;;;;;71.53;32.30;;;;;;;3.38;100.00;98135.03;2256650;79;21515;-59
2022/12/09 03:53:11;;;;;;;75.00;35.33;;;;;;;3.38;100.00;98125.48;2256200;79;21434;-59
2022/12/09 03:56:12;;;;;;;73.37;34.23;;;;;;;3.37;100.00;98134.17;2256097;79;21571;-59
2022/12/09 03:59:14;;;;;;;73.05;34.50;;;;;;;3.35;100.00;98132.54;2256266;79;21008;-59
2022/12/09 04:02:16;;;;;;;74.60;34.90;;;;;;;3.28;100.00;98142.34;2256478;79;21083;-59
2022/12/09 04:05:17;;;;;;;71.57;33.55;;;;;;;3.25;100.00;98136.83;2256223;79;21471;-59
2022/12/09 04:08:18;;;;;;;70.52;33.15;;;;;;;3.24;100.00;98136.90;2256150;79;21028;-59
2022/12/09 04:11:20;;;;;;;72.10;34.33;;;;;;;3.20;100.00;98137.47;2255931;79;20988;-59
2022/12/09 04:14:21;;;;;;;75.78;33.50;;;;;;;3.15;100.00;98126.91;2256167;79;20927;-59
2022/12/09 04:17:23;;;;;;;71.82;33.90;;;;;;;3.19;100.00;98133.21;2256415;79;21519;-59
2022/12/09 04:20:24;;;;;;;67.75;32.13;;;;;;;3.25;100.00;98120.45;2256193;79;21056;-59
2022/12/09 04:23:25;;;;;;;65.25;30.17;;;;;;;3.23;100.00;98120.52;2256121;79;21063;-59
2022/12/09 04:26:27;;;;;;;61.20;29.60;;;;;;;3.22;100.00;98126.59;2256276;79;21053;-59
2022/12/09 04:29:28;;;;;;;63.47;30.37;;;;;;;3.21;100.00;98116.30;2256063;79;21027;-59
2022/12/09 04:32:30;;;;;;;64.12;30.27;;;;;;;3.15;100.00;98121.72;2255854;79;21008;-59
2022/12/09 04:35:31;;;;;;;66.00;29.67;;;;;;;3.18;100.00;98119.02;2256509;79;21057;-59
2022/12/09 04:38:33;;;;;;;65.55;29.25;;;;;;;3.20;100.00;98119.32;2256492;79;21476;-59
2022/12/09 04:41:35;;;;;;;60.35;27.65;;;;;;;3.23;100.00;98120.52;2256298;79;21016;-58
2022/12/09 04:44:36;;;;;;;55.88;26.73;;;;;;;3.33;100.00;98117.52;2256535;79;21546;-59
2022/12/09 04:47:38;;;;;;;60.30;27.20;;;;;;;3.32;100.00;98121.01;2256345;79;21045;-59
2022/12/09 04:50:40;;;;;;;58.48;26.07;;;;;;;3.33;100.00;98118.35;2256202;79;21563;-59
2022/12/09 04:53:42;;;;;;;64.42;28.00;;;;;;;3.21;100.00;98115.00;2256400;79;21056;-59
2022/12/09 04:56:43;;;;;;;72.92;32.80;;;;;;;3.10;100.00;98119.33;2256117;79;21052;-59
2022/12/09 04:59:45;;;;;;;89.93;39.13;;;;;;;3.09;100.00;98123.68;2256302;79;21115;-58
2022/12/09 05:02:46;;;;;;;76.28;34.40;;;;;;;3.07;100.00;98124.17;2256522;79;21566;-59
2022/12/09 05:05:48;;;;;;;77.90;34.80;;;;;;;3.10;100.00;98120.63;2256408;79;20972;-60
2022/12/09 05:08:49;;;;;;;81.57;33.97;;;;;;;3.13;100.00;98125.67;2256579;79;21512;-59
2022/12/09 05:11:51;;;;;;;78.52;35.23;;;;;;;3.10;100.00;98120.19;2256041;79;21017;-59
2022/12/09 05:14:52;;;;;;;75.62;35.20;;;;;;;3.10;100.00;98120.19;2256546;79;21075;-59
2022/12/09 05:17:54;;;;;;;77.20;35.20;;;;;;;3.10;100.00;98125.37;2256262;79;21080;-59
2022/12/09 05:20:55;;;;;;;75.50;32.63;;;;;;;3.01;100.00;98123.15;2256640;79;21112;-59
2022/12/09 05:23:57;;;;;;;68.55;31.55;;;;;;;3.02;100.00;98123.55;2256200;79;21044;-59
2022/12/09 05:26:58;;;;;;;69.32;32.00;;;;;;;3.04;100.00;98126.07;2255750;79;21017;-59
2022/12/09 05:30:00;;;;;;;68.12;30.27;;;;;;;3.04;100.00;98123.48;2256201;79;21004;-59
2022/12/09 05:33:01;;;;;;;64.50;30.35;;;;;;;3.01;100.00;98120.55;2256128;79;21031;-59
2022/12/09 05:36:02;;;;;;;66.20;30.40;;;;;;;3.02;100.00;98122.71;2256379;79;21543;-59
2022/12/09 05:39:04;;;;;;;64.53;29.27;;;;;;;2.98;100.00;98124.58;2256013;79;21056;-59
2022/12/09 05:42:05;;;;;;;63.80;31.65;;;;;;;3.03;100.00;98125.67;2256479;79;21103;-59
2022/12/09 05:45:07;;;;;;;62.83;30.55;;;;;;;3.03;100.00;98126.97;2256202;79;21103;-59
2022/12/09 05:48:08;;;;;;;75.62;33.38;;;;;;;2.99;100.00;98127.56;2256068;79;21066;-59
2022/12/09 05:51:09;;;;;;;71.30;32.60;;;;;;;3.01;100.00;98127.50;2256036;79;21329;-59
2022/12/09 05:54:11;;;;;;;63.63;30.08;;;;;;;3.02;100.00;98119.66;2256080;79;20956;-59
2022/12/09 05:57:12;;;;;;;66.80;30.90;;;;;;;2.97;100.00;98124.17;2251569;79;21053;-59
2022/12/09 06:00:14;;;;;;;67.30;31.30;;;;;;;2.98;100.00;98118.56;2248963;79;21056;-59
2022/12/09 06:03:15;;;;;;;58.63;27.37;;;;;;;2.97;100.00;98113.81;2249354;79;21566;-59
2022/12/09 06:06:17;;;;;;;54.80;26.50;;;;;;;2.98;100.00;98119.86;2249324;79;21040;-59
2022/12/09 06:09:18;;;;;;;58.17;26.85;;;;;;;2.88;100.00;98115.03;2249193;79;21056;-59
2022/12/09 06:12:19;;;;;;;58.48;27.05;;;;;;;2.89;100.00;98115.44;2249444;79;21076;-59
2022/12/09 06:15:21;;;;;;;58.23;27.50;;;;;;;2.87;100.00;98111.22;2249200;79;21072;-59
2022/12/09 06:18:22;;;;;;;62.83;28.67;;;;;;;2.89;100.00;98113.31;2249192;79;21092;-59
2022/12/09 06:21:24;;;;;;;64.55;31.17;;;;;;;2.88;100.00;98107.27;2248884;79;21363;-58
2022/12/09 06:24:25;;;;;;;69.32;29.12;;;;;;;2.96;100.00;98112.15;2249448;79;21547;-58
2022/12/09 06:27:27;;;;;;;72.30;30.68;;;;;;;2.99;100.00;98118.50;2249315;79;21028;-59
2022/12/09 06:30:28;;;;;;;70.50;29.65;;;;;;;2.92;100.00;98115.77;2249191;79;21052;-58
2022/12/09 06:33:30;;;;;;;77.85;32.13;;;;;;;2.94;100.00;98117.83;2249311;79;21029;-58
2022/12/09 06:36:31;;;;;;;61.97;28.63;;;;;;;3.03;100.00;98114.88;2249472;79;21104;-59
2022/12/09 06:39:32;;;;;;;64.87;28.35;;;;;;;3.06;100.00;98121.66;2249302;79;21081;-59
2022/12/09 06:42:34;;;;;;;62.25;28.70;;;;;;;2.98;100.00;98117.27;2249211;79;21012;-58
2022/12/09 06:45:35;;;;;;;62.85;28.25;;;;;;;2.95;100.00;98124.70;2249217;79;21587;-59
2022/12/09 06:48:37;;;;;;;60.38;27.90;;;;;;;2.97;100.00;98131.12;2249168;79;21092;-59
2022/12/09 06:51:38;;;;;;;58.10;27.53;;;;;;;2.95;100.00;98119.52;2249366;79;21512;-59
2022/12/09 06:54:40;;;;;;;60.20;28.35;;;;;;;2.92;100.00;98131.31;2249172;79;21024;-59
2022/12/09 06:57:41;;;;;;;59.45;26.42;;;;;;;2.94;100.00;98128.19;2249238;79;21524;-59
2022/12/09 07:00:43;;;;;;;57.70;27.70;;;;;;;2.97;100.00;98135.00;2249470;79;21036;-59
2022/12/09 07:03:44;;;;;;;58.65;26.95;;;;;;;3.00;100.00;98139.59;2249109;79;22947;-59
2022/12/09 07:06:46;;;;;;;63.70;28.38;;;;;;;3.02;100.00;98144.27;2249283;79;21021;-59
2022/12/09 07:09:48;;;;;;;70.45;30.25;;;;;;;3.05;100.00;98147.20;2249347;79;21587;-58
2022/12/09 07:12:49;;;;;;;75.32;32.30;;;;;;;3.08;100.00;98145.30;2248867;79;21064;-59
2022/12/09 07:15:50;;;;;;;81.20;36.58;;;;;;;3.13;100.00;98143.81;2249156;79;21037;-59
2022/12/09 07:18:52;;;;;;;87.17;36.58;;;;;;;3.14;100.00;98147.27;2249244;79;21041;-59
2022/12/09 07:21:53;;;;;;;79.75;35.92;;;;;;;3.18;100.00;98138.00;2249132;79;21032;-59
2022/12/09 07:24:55;;;;;;;97.35;40.17;;;;;;;3.30;100.00;98141.81;2249374;79;21564;-59
2022/12/09 07:27:57;;;;;;;100.05;42.38;;;;;;;3.33;100.00;98144.73;2249378;79;21065;-59
2022/12/09 07:30:58;;;;;;;101.10;39.42;;;;;;;3.37;100.00;98126.85;2249527;79;21502;-59
2022/12/09 07:33:59;;;;;;;85.32;37.00;;;;;;;3.41;100.00;98122.77;2249371;79;21024;-59
2022/12/09 07:37:01;;;;;;;73.52;33.48;;;;;;;3.45;100.00;98126.08;2249266;79;21075;-59
2022/12/09 07:40:02;;;;;;;64.10;30.32;;;;;;;3.53;100.00;98119.25;2249254;79;21025;-59
2022/12/09 07:43:05;;;;;;;57.67;28.80;;;;;;;3.62;100.00;98126.18;2249248;79;21036;-59
2022/12/09 07:46:06;;;;;;;;;;;;;;;3.72;100.00;98126.63;2251937;79;21040;-58
2022/12/09 07:49:08;;;;;;;56.83;26.97;;;;;;;3.79;100.00;98118.95;2249422;79;20361;-59
2022/12/09 07:52:11;;;;;;;53.23;26.82;;;;;;;3.81;100.00;98123.61;2249183;79;21076;-59
2022/12/09 07:55:12;;;;;;;55.00;26.45;;;;;;;3.79;100.00;98122.84;2249501;79;21009;-58
2022/12/09 07:58:14;;;;;;;57.83;27.77;;;;;;;3.88;100.00;98121.59;2254775;79;21095;-59
2022/12/09 08:01:16;;;;;;;58.90;27.17;;;;;;;3.97;100.00;98129.41;2256301;79;21059;-59
2022/12/09 08:04:17;;;;;;;53.92;27.07;;;;;;;3.98;100.00;98125.91;2256630;79;21004;-59
2022/12/09 08:07:19;;;;;;;55.83;27.37;;;;;;;4.06;100.00;98119.89;2256318;79;21076;-59
2022/12/09 08:10:20;;;;;;;55.88;26.27;;;;;;;4.10;100.00;98121.44;2256477;79;21516;-59
2022/12/09 08:13:22;;;;;;;56.80;27.90;;;;;;;4.21;100.00;98118.80;2256387;79;21032;-59
2022/12/09 08:16:23;;;;;;;52.40;25.75;;;;;;;4.26;100.00;98118.15;2256441;79;21531;-59
2022/12/09 08:19:24;;;;;;;55.25;26.80;;;;;;;4.39;100.00;98117.95;2256137;79;21016;-59
2022/12/09 08:22:26;;;;;;;55.60;26.52;;;;;;;4.52;100.00;98119.51;2256163;79;21047;-59
2022/12/09 08:25:27;;;;;;;53.08;25.80;;;;;;;4.60;100.00;98113.97;2256343;79;21060;-59
2022/12/09 08:28:29;;;;;;;54.00;27.00;;;;;;;4.61;100.00;98118.23;2256087;79;21047;-59
2022/12/09 08:31:30;;;;;;;56.87;27.20;;;;;;;4.81;100.00;98116.83;2256590;79;21032;-59
2022/12/09 08:34:32;;;;;;;54.48;26.12;;;;;;;5.15;100.00;98118.20;2256155;79;21036;-59
2022/12/09 08:37:33;;;;;;;53.33;26.03;;;;;;;5.33;100.00;98117.28;2256244;79;21613;-59
2022/12/09 08:40:35;;;;;;;52.23;26.12;;;;;;;5.53;100.00;98111.49;2256278;79;21060;-59
2022/12/09 08:43:36;;;;;;;53.80;25.20;;;;;;;5.86;100.00;98105.44;2256455;79;21108;-59
2022/12/09 08:46:38;;;;;;;51.42;25.15;;;;;;;5.86;100.00;98105.44;2256377;79;21021;-59
2022/12/09 08:49:39;;;;;;;50.67;26.42;;;;;;;5.99;100.00;98113.03;2256085;79;21068;-59
2022/12/09 08:52:41;;;;;;;48.48;24.18;;;;;;;6.14;100.00;98119.63;2256249;79;21527;-59
2022/12/09 08:55:43;;;;;;;53.85;26.52;;;;;;;6.22;100.00;98110.48;2256418;79;21056;-59
2022/12/09 08:58:47;;;;;;;51.90;25.97;;;;;;;6.39;100.00;98119.11;2256028;79;21052;-59
2022/12/09 09:01:48;;;;;;;52.55;26.55;;;;;;;6.29;100.00;98120.08;2229529;79;21039;-59
2022/12/09 09:04:49;;;;;;;61.85;29.40;;;;;;;6.29;100.00;98127.06;2256157;79;21092;-59
2022/12/09 09:07:50;;;;;;;47.88;24.52;;;;;;;6.40;100.00;98127.31;2256336;79;21024;-59
2022/12/09 09:10:53;;;;;;;51.10;25.77;;;;;;;6.52;100.00;98120.58;2256192;79;20996;-59
2022/12/09 09:13:55;;;;;;;51.15;25.85;;;;;;;6.36;100.00;98115.38;2256392;79;21036;-59
2022/12/09 09:16:56;;;;;;;55.00;27.27;;;;;;;6.22;100.00;98121.33;2256225;79;21060;-59
2022/12/09 09:19:58;;;;;;;49.70;25.57;;;;;;;6.07;100.00;98120.41;2256314;79;21116;-59
2022/12/09 09:22:59;;;;;;;49.75;26.10;;;;;;;5.94;100.00;98124.10;2256092;79;21033;-59
2022/12/09 09:26:00;;;;;;;52.45;27.55;;;;;;;5.93;100.00;98125.02;2256384;79;21015;-59
2022/12/09 09:29:02;;;;;;;52.75;26.85;;;;;;;5.90;100.00;98119.53;2256064;79;21056;-60
2022/12/09 09:32:03;;;;;;;50.58;26.17;;;;;;;5.86;100.00;98115.41;2255725;79;20980;-59
2022/12/09 09:35:05;;;;;;;47.98;24.47;;;;;;;5.96;100.00;98114.91;2256352;79;21508;-59
2022/12/09 09:38:06;;;;;;;49.77;25.15;;;;;;;5.96;100.00;98118.37;2256285;79;21039;-59
2022/12/09 09:41:07;;;;;;;44.67;23.52;;;;;;;6.00;100.00;98113.38;2256713;79;21534;-59
2022/12/09 09:44:09;;;;;;;49.48;24.30;;;;;;;6.14;100.00;98102.23;2256412;79;21047;-61
2022/12/09 09:47:10;;;;;;;52.15;24.55;;;;;;;6.05;100.00;98107.48;2256290;79;21028;-59
2022/12/09 09:50:12;;;;;;;49.42;24.40;;;;;;;6.14;100.00;98104.02;2256357;79;21049;-59
2022/12/09 09:53:13;;;;;;;48.68;25.05;;;;;;;6.08;100.00;98107.78;2256432;79;21040;-59
2022/12/09 09:56:15;;;;;;;49.23;25.15;;;;;;;6.00;100.00;98101.67;2256306;79;21021;-59
2022/12/09 09:59:18;;;;;;;46.08;24.05;;;;;;;5.88;100.00;98107.05;2255802;79;21028;-59
2022/12/09 10:02:19;;;;;;;50.25;24.02;;;;;;;5.94;100.00;98098.07;2256699;79;21543;-59
2022/12/09 10:05:21;;;;;;;50.92;25.35;;;;;;;5.96;100.00;98106.66;2256040;79;20996;-59
2022/12/09 10:08:22;;;;;;;51.18;25.43;;;;;;;5.88;100.00;98109.65;2256283;79;21475;-59
2022/12/09 10:11:24;;;;;;;49.55;24.02;;;;;;;5.73;100.00;98104.81;2256443;79;21037;-58
2022/12/09 10:14:25;;;;;;;47.03;24.60;;;;;;;5.68;100.00;98104.20;2256690;79;21092;-59
2022/12/09 10:17:27;;;;;;;51.63;24.47;;;;;;;5.71;100.00;98099.30;2256384;79;21700;-59
2022/12/09 10:20:30;;;;;;;49.53;25.35;;;;;;;5.80;100.00;98087.09;2256793;79;21025;-59
2022/12/09 10:23:32;;;;;;;51.02;25.60;;;;;;;5.85;100.00;98086.39;2256023;79;21057;-60
2022/12/09 10:26:33;;;;;;;53.83;25.65;;;;;;;6.08;100.00;98098.67;2256685;79;21507;-59
2022/12/09 10:29:35;;;;;;;52.10;25.55;;;;;;;6.26;100.00;98101.19;2256386;79;21020;-60
2022/12/09 10:32:36;;;;;;;54.55;26.35;;;;;;;6.38;100.00;98100.53;2256828;79;21574;-59
2022/12/09 10:35:38;;;;;;;51.95;25.37;;;;;;;6.60;100.00;98091.03;2256514;79;21069;-59
2022/12/09 10:38:39;;;;;;;57.93;27.75;;;;;;;6.65;100.00;98092.92;2256357;79;21037;-59
2022/12/09 10:44:44;;;;;;;54.93;28.38;;;;;;;7.00;100.00;98086.14;2229526;79;20989;-59
2022/12/09 10:47:46;;;;;;;48.40;22.13;;;;;;;7.11;100.00;98074.63;2256214;79;21040;-59
2022/12/09 10:50:48;;;;;;;49.30;21.87;;;;;;;7.20;100.00;98071.11;2256204;79;21095;-59
2022/12/09 10:53:49;;;;;;;43.95;20.90;;;;;;;7.24;100.00;98070.83;2256366;79;21016;-59
2022/12/09 10:56:50;;;;;;;40.28;18.25;;;;;;;7.31;100.00;98064.76;2256505;79;21443;-59
2022/12/09 10:59:52;;;;;;;39.18;19.25;;;;;;;7.38;100.00;98061.33;2256501;79;21028;-60
2022/12/09 11:02:53;;;;;;;42.20;19.75;;;;;;;7.11;100.00;98064.64;2256320;79;21041;-59
2022/12/09 11:05:55;;;;;;;40.97;19.03;;;;;;;7.08;100.00;98059.16;2256782;79;21012;-59
2022/12/09 11:08:56;;;;;;;45.23;22.40;;;;;;;7.01;100.00;98066.11;2256232;79;21730;-59
2022/12/09 11:11:58;;;;;;;37.42;19.10;;;;;;;6.83;100.00;98077.16;2256259;79;21044;-60
2022/12/09 11:15:00;;;;;;;40.10;18.80;;;;;;;6.76;100.00;98063.16;2256509;79;21064;-59
2022/12/09 11:18:01;;;;;;;37.10;17.73;;;;;;;6.75;100.00;98051.52;2255999;79;21127;-59
2022/12/09 11:21:03;;;;;;;40.88;19.37;;;;;;;6.83;100.00;98053.70;2256282;79;21583;-58
2022/12/09 11:24:04;;;;;;;43.60;20.90;;;;;;;6.77;100.00;98053.59;2256186;79;21036;-59
2022/12/09 11:27:06;;;;;;;41.60;20.67;;;;;;;6.81;100.00;98051.19;2256541;79;21563;-58
2022/12/09 11:30:07;;;;;;;40.67;19.35;;;;;;;6.69;100.00;98046.19;2256355;79;21747;-59
2022/12/09 11:33:09;;;;;;;38.67;18.15;;;;;;;6.60;100.00;98042.83;2256194;79;21075;-59
2022/12/09 11:36:11;;;;;;;36.67;17.47;;;;;;;6.45;100.00;98038.03;2256579;79;21310;-59
2022/12/09 11:39:12;;;;;;;39.80;18.40;;;;;;;6.57;100.00;98043.84;2256598;79;21733;-59
2022/12/09 11:42:16;;;;;;;38.55;17.85;;;;;;;6.64;100.00;98042.17;2256170;79;20996;-59
2022/12/09 11:45:17;;;;;;;43.17;18.98;;;;;;;6.71;100.00;98046.96;2256162;79;21091;-59
2022/12/09 11:48:19;;;;;;;38.70;19.37;;;;;;;6.90;100.00;98044.59;2256179;79;21059;-59
2022/12/09 11:51:21;;;;;;;38.83;18.65;;;;;;;7.01;100.00;98047.86;2256448;79;21504;-59
2022/12/09 11:54:22;;;;;;;37.98;17.98;;;;;;;7.09;100.00;98043.04;2256455;79;21045;-59
2022/12/09 11:57:24;;;;;;;39.38;18.27;;;;;;;6.97;100.00;98052.43;2256407;79;21522;-59
2022/12/09 12:00:26;;;;;;;38.80;17.95;;;;;;;6.94;100.00;98049.53;2256331;79;21012;-58
2022/12/09 12:03:27;;;;;;;38.35;17.85;;;;;;;7.05;100.00;98055.44;2256555;79;21578;-59
2022/12/09 12:06:28;;;;;;;38.02;17.80;;;;;;;7.14;100.00;98046.67;2256176;79;21068;-59
2022/12/09 12:09:30;;;;;;;40.15;18.02;;;;;;;7.25;100.00;98035.14;2256137;79;21071;-59
2022/12/09 12:12:31;;;;;;;39.70;19.12;;;;;;;7.27;100.00;98030.69;2256076;79;21071;-59
2022/12/09 12:15:33;;;;;;;39.38;17.77;;;;;;;7.09;100.00;98027.39;2256172;79;21037;-59
2022/12/09 12:18:34;;;;;;;312.32;110.57;;;;;;;7.02;100.00;98038.64;2256264;79;21103;-59
2022/12/09 12:21:36;;;;;;;42.90;19.23;;;;;;;7.06;100.00;98027.58;2256189;79;21064;-59
2022/12/09 12:24:37;;;;;;;39.20;17.55;;;;;;;6.82;100.00;98028.08;2256128;79;21547;-59
2022/12/09 12:27:38;;;;;;;44.33;22.50;;;;;;;6.66;100.00;98027.30;2256161;79;21055;-59
2022/12/09 12:30:40;;;;;;;38.70;17.70;;;;;;;6.38;100.00;98027.59;2256129;79;21012;-58
2022/12/09 12:33:44;;;;;;;36.95;17.20;;;;;;;6.24;100.00;98028.36;2256108;79;21056;-59
2022/12/09 12:36:46;;;;;;;36.73;17.77;;;;;;;6.28;100.00;98026.41;2256146;79;21087;-59
2022/12/09 12:39:47;;;;;;;39.23;17.12;;;;;;;6.40;100.00;98027.03;2256128;79;21075;-59
2022/12/09 12:46:15;;;;;;;39.92;18.62;;;;;;;6.37;100.00;98029.33;2256116;79;21028;-59
2022/12/09 12:48:55;;;;;;;41.45;18.92;;;;;;;6.06;100.00;98018.05;2229798;79;21464;-59
2022/12/09 12:51:57;;;;;;;39.70;16.40;;;;;;;5.88;100.00;98017.25;2256270;79;20981;-59
2022/12/09 12:54:58;;;;;;;34.88;15.70;;;;;;;5.85;100.00;98014.82;2256260;79;21075;-59
2022/12/09 12:58:00;;;;;;;33.63;15.20;;;;;;;5.80;100.00;98010.78;2256339;79;21077;-59
2022/12/09 13:01:01;;;;;;;34.55;15.63;;;;;;;5.84;100.00;98018.34;2256424;79;21080;-59
2022/12/09 13:04:03;;;;;;;35.03;15.48;;;;;;;5.87;100.00;98015.56;2256467;79;21040;-59
2022/12/09 13:07:04;;;;;;;35.83;16.62;;;;;;;6.02;100.00;98016.53;2256088;79;21072;-58
2022/12/09 13:10:07;;;;;;;38.15;18.42;;;;;;;6.16;100.00;98013.17;2256531;79;21036;-59
2022/12/09 13:13:09;;;;;;;41.60;19.23;;;;;;;6.08;100.00;98008.84;2256341;79;21592;-58
2022/12/09 13:16:10;;;;;;;38.85;18.12;;;;;;;6.03;100.00;98010.41;2255792;79;21001;-59
2022/12/09 13:19:12;;;;;;;38.98;17.77;;;;;;;5.92;100.00;98010.57;2256073;79;21031;-59
2022/12/09 13:22:13;;;;;;;39.23;18.53;;;;;;;5.80;100.00;98015.99;2256464;79;21073;-60
2022/12/09 13:25:15;;;;;;;38.77;18.33;;;;;;;5.65;100.00;98004.66;2256033;79;21716;-59
2022/12/09 13:28:17;;;;;;;40.83;17.35;;;;;;;5.60;100.00;98001.45;2256273;79;21024;-59
2022/12/09 13:31:18;;;;;;;35.33;16.10;;;;;;;5.47;100.00;98008.60;2256267;79;21016;-59
2022/12/09 13:34:20;;;;;;;37.17;16.55;;;;;;;5.34;100.00;97999.34;2256022;79;22067;-58
2022/12/09 13:37:21;;;;;;;34.98;16.42;;;;;;;5.19;100.00;97999.67;2256062;79;21037;-58
2022/12/09 13:40:23;;;;;;;35.15;15.00;;;;;;;5.08;100.00;97992.05;2256468;79;21504;-59
2022/12/09 13:43:24;;;;;;;39.08;17.05;;;;;;;5.00;100.00;97984.20;2256323;79;21044;-60
2022/12/09 13:46:26;;;;;;;40.20;18.37;;;;;;;4.92;100.00;97994.14;2256398;79;21091;-59
2022/12/09 13:49:27;;;;;;;40.20;18.48;;;;;;;4.85;100.00;98008.36;2256178;79;21715;-59
2022/12/09 13:52:29;;;;;;;36.43;15.20;;;;;;;4.96;100.00;98002.16;2256343;79;21068;-59
2022/12/09 13:55:30;;;;;;;37.13;16.35;;;;;;;5.10;100.00;97999.30;2256219;79;21720;-60
2022/12/09 13:58:32;;;;;;;71.97;38.73;;;;;;;5.05;100.00;97993.05;2255975;79;20996;-59